Time;durP1;ratioP1;P1;durP2;ratioP2;P2;SDS_P1;SDS_P2;PMS_P1;PMS_P2;Temp;Humidity;BMP_temperature;BMP_pressure;BME280_temperature;BME280_humidity;BME280_pressure;Samples;Min_cycle;Max_cycle;Signal;HPM_P1;HPM_P2
2023/11/18 00:00:49;;;;;;;;;;;;;;;2.54;100.00;101753.81;5059980;28;19932;-88
2023/11/18 00:03:23;;;;;;;;;;;;;;;2.54;100.00;101759.19;5062453;28;19928;-87
2023/11/18 00:05:52;;;;;;;;;;;;;;;2.50;100.00;101764.16;5066132;28;19935;-88
2023/11/18 00:08:20;;;;;;;;;;;;;;;2.50;100.00;101760.63;5053954;28;19931;-87
2023/11/18 00:10:53;;;;;;;;;;;;;;;2.52;100.00;101756.72;5065689;28;19925;-88
2023/11/18 00:13:21;;;;;;;;;;;;;;;2.52;100.00;101755.91;5057173;28;19924;-87
2023/11/18 00:15:49;;;;;;;;;;;;;;;2.55;100.00;101752.78;5068451;28;19924;-87
2023/11/18 00:18:17;;;;;;;;;;;;;;;2.49;100.00;101756.28;5069480;28;19932;-87
2023/11/18 00:20:45;;;;;;;;;;;;;;;2.54;100.00;101754.66;5077674;28;19929;-88
2023/11/18 00:23:14;;;;;;;;;;;;;;;2.58;100.00;101752.38;5069856;28;19932;-88
2023/11/18 00:25:42;;;;;;;;;;;;;;;2.62;100.00;101753.66;5039418;28;19931;-87
2023/11/18 00:28:10;;;;;;;;;;;;;;;2.63;100.00;101749.94;5055336;28;19929;-88
2023/11/18 00:30:40;;;;;;;;;;;;;;;2.63;100.00;101754.50;5042861;28;20531;-88
2023/11/18 00:33:12;;;;;;;;;;;;;;;2.62;100.00;101750.16;5064584;28;20438;-88
2023/11/18 00:35:41;;;;;;;;;;;;;;;2.63;100.00;101747.25;5049102;28;19931;-88
2023/11/18 00:38:10;;;;;;;;;;;;;;;2.64;100.00;101745.41;5047947;28;19933;-88
2023/11/18 00:40:44;;;;;;;;;;;;;;;2.63;100.00;101749.94;5038780;28;19935;-88
2023/11/18 00:43:12;;;;;;;;;;;;;;;2.64;100.00;101748.91;5050776;28;20309;-88
2023/11/18 00:45:41;;;;;;;;;;;;;;;2.64;100.00;101748.91;5043930;28;19926;-88
2023/11/18 00:48:14;;;;;;;;;;;;;;;2.61;100.00;101746.63;5052523;28;19932;-88
2023/11/18 00:50:42;;;;;;;;;;;;;;;2.63;100.00;101749.94;5059172;28;20411;-88
2023/11/18 00:53:11;;;;;;;;;;;;;;;2.65;100.00;101747.91;5055770;28;19928;-88
2023/11/18 00:55:38;;;;;;;;;;;;;;;2.63;100.00;101749.13;5055238;28;20296;-89
2023/11/18 00:58:08;;;;;;;;;;;;;;;2.67;100.00;101745.81;5059713;28;19947;-88
2023/11/18 01:00:41;;;;;;;;;;;;;;;2.78;100.00;101748.97;5084583;28;20002;-87
2023/11/18 01:03:10;;;;;;;;;;;;;;;2.68;100.00;101749.31;5056769;28;20383;-88
2023/11/18 01:05:38;;;;;;;;;;;;;;;2.64;100.00;101748.09;5064823;28;19924;-88
2023/11/18 01:08:11;;;;;;;;;;;;;;;2.64;100.00;101753.47;5063072;28;19931;-88
2023/11/18 01:10:44;;;;;;;;;;;;;;;2.60;100.00;101747.66;5058538;28;19932;-88
2023/11/18 01:13:13;;;;;;;;;;;;;;;2.60;100.00;101750.34;5052718;28;19946;-88
2023/11/18 01:15:42;;;;;;;;;;;;;;;2.62;100.00;101755.53;5064660;28;19924;-87
2023/11/18 01:18:15;;;;;;;;;;;;;;;2.63;100.00;101754.50;5045801;28;19931;-87
2023/11/18 01:20:43;;;;;;;;;;;;;;;2.58;100.00;101752.38;5045256;28;19932;-87
2023/11/18 01:23:11;;;;;;;;;;;;;;;2.51;100.00;101755.06;5054584;28;19925;-88
2023/11/18 01:25:44;;;;;;;;;;;;;;;2.47;100.00;101751.13;5069051;28;19935;-87
2023/11/18 01:28:18;;;;;;;;;;;;;;;2.44;100.00;101761.44;5076579;28;19924;-87
2023/11/18 01:30:46;;;;;;;;;;;;;;;2.36;100.00;101760.56;5060000;28;19924;-88
2023/11/18 01:33:14;;;;;;;;;;;;;;;2.32;100.00;101762.00;5053807;28;19925;-88
2023/11/18 01:35:47;;;;;;;;;;;;;;;2.23;100.00;101760.50;5068550;28;19924;-88
2023/11/18 01:38:15;;;;;;;;;;;;;;;2.23;100.00;101759.66;5067728;28;19925;-88
2023/11/18 01:40:43;;;;;;;;;;;;;;;2.20;100.00;101763.56;5063207;28;19928;-87
2023/11/18 01:43:13;;;;;;;;;;;;;;;2.18;100.00;101761.09;5040555;28;19929;-88
2023/11/18 01:45:43;;;;;;;;;;;;;;;2.09;100.00;101758.75;5065081;28;19924;-88
2023/11/18 01:48:11;;;;;;;;;;;;;;;2.00;100.00;101764.28;5046007;28;20479;-87
2023/11/18 01:50:41;;;;;;;;;;;;;;;1.96;100.00;101762.16;5044714;28;19929;-87
2023/11/18 01:53:09;;;;;;;;;;;;;;;1.97;100.00;101763.81;5054147;28;19925;-87
2023/11/18 01:55:43;;;;;;;;;;;;;;;1.98;100.00;101771.69;5044006;28;19929;-88
2023/11/18 01:58:13;;;;;;;;;;;;;;;2.00;100.00;101768.81;5048496;28;20392;-88
2023/11/18 02:00:42;;;;;;;;;;;;;;;2.04;100.00;101767.38;5048911;28;19925;-87
2023/11/18 02:03:13;;;;;;;;;;;;;;;2.09;100.00;101770.31;5051647;28;19924;-87
2023/11/18 02:05:42;;;;;;;;;;;;;;;2.11;100.00;101767.44;5062243;28;19925;-88
2023/11/18 02:08:15;;;;;;;;;;;;;;;2.13;100.00;101760.84;5051727;28;19924;-88
2023/11/18 02:10:48;;;;;;;;;;;;;;;2.18;100.00;101765.63;5053732;28;19928;-87
2023/11/18 02:13:24;;;;;;;;;;;;;;;2.22;100.00;101766.88;5070851;28;19999;-87
2023/11/18 02:15:58;;;;;;;;;;;;;;;2.23;100.00;101763.19;5041423;28;19931;-88
2023/11/18 02:18:28;;;;;;;;;;;;;;;2.25;100.00;101766.50;5056173;28;19935;-87
2023/11/18 02:20:57;;;;;;;;;;;;;;;2.25;100.00;101766.50;5050312;28;19925;-87
2023/11/18 02:23:26;;;;;;;;;;;;;;;2.26;100.00;101759.28;5057066;28;19932;-88
2023/11/18 02:26:01;;;;;;;;;;;;;;;2.24;100.00;101764.00;5049814;28;19931;-87
2023/11/18 02:28:29;;;;;;;;;;;;;;;2.15;100.00;101764.16;5066337;28;19933;-87
2023/11/18 02:31:05;;;;;;;;;;;;;;;2.10;100.00;101766.63;5053669;28;19931;-87
2023/11/18 02:33:39;;;;;;;;;;;;;;;1.99;100.00;101776.03;5048896;28;20403;-87
2023/11/18 02:36:13;;;;;;;;;;;;;;;1.92;100.00;101780.53;5063849;28;19924;-88
2023/11/18 02:38:50;;;;;;;;;;;;;;;1.82;100.00;101777.34;5050730;28;19925;-87
2023/11/18 02:41:29;;;;;;;;;;;;;;;1.74;100.00;101777.47;5046691;28;19934;-87
2023/11/18 02:43:58;;;;;;;;;;;;;;;1.62;100.00;101793.28;5046050;28;19935;-87
2023/11/18 02:46:27;;;;;;;;;;;;;;;1.52;100.00;101788.25;5058192;28;19928;-87
2023/11/18 02:48:55;;;;;;;;;;;;;;;1.51;100.00;101786.59;5054434;28;19931;-87
2023/11/18 02:51:29;;;;;;;;;;;;;;;1.47;100.00;101798.72;5055354;28;19925;-88
2023/11/18 02:53:57;;;;;;;;;;;;;;;1.40;100.00;101805.88;5056751;28;19924;-87
2023/11/18 02:56:27;;;;;;;;;;;;;;;1.35;100.00;101807.28;5075571;28;19947;-87
2023/11/18 02:58:55;;;;;;;;;;;;;;;1.27;100.00;101806.56;5060551;28;19929;-87
2023/11/18 03:01:29;;;;;;;;;;;;;;;1.21;100.00;101800.09;5066573;28;19931;-87
2023/11/18 03:04:04;;;;;;;;;;;;;;;1.17;100.00;101807.72;5060888;28;19924;-87
2023/11/18 03:06:37;;;;;;;;;;;;;;;1.21;100.00;101805.47;5053395;28;20388;-87
2023/11/18 03:09:10;;;;;;;;;;;;;;;1.18;100.00;101812.03;5043994;28;20645;-86
2023/11/18 03:11:40;;;;;;;;;;;;;;;1.23;100.00;101810.63;5053527;28;19929;-87
2023/11/18 03:14:12;;;;;;;;;;;;;;;1.31;100.00;101811.38;5053518;28;19924;-87
2023/11/18 03:16:45;;;;;;;;;;;;;;;1.33;100.00;101809.31;5054183;28;19935;-87
2023/11/18 03:19:13;;;;;;;;;;;;;;;1.37;100.00;101807.09;5054701;28;19924;-86
2023/11/18 03:21:43;;;;;;;;;;;;;;;1.35;100.00;101812.66;5059048;28;19924;-87
2023/11/18 03:24:16;;;;;;;;;;;;;;;1.31;100.00;101813.19;5062626;28;19928;-87
2023/11/18 03:26:45;;;;;;;;;;;;;;;1.30;100.00;101819.59;5049327;28;19932;-87
2023/11/18 03:29:18;;;;;;;;;;;;;;;1.28;100.00;101818.94;5044355;28;19925;-86
2023/11/18 03:31:51;;;;;;;;;;;;;;;1.33;100.00;101816.53;5065593;28;19939;-87
2023/11/18 03:34:20;;;;;;;;;;;;;;;1.39;100.00;101814.94;5061541;28;20419;-87
2023/11/18 03:36:48;;;;;;;;;;;;;;;1.41;100.00;101804.84;5060072;28;19924;-86
2023/11/18 03:39:16;;;;;;;;;;;;;;;1.45;100.00;101803.44;5059374;28;19936;-87
2023/11/18 03:41:44;;;;;;;;;;;;;;;1.50;100.00;101804.50;5047796;28;19931;-87
2023/11/18 03:44:14;;;;;;;;;;;;;;;1.57;100.00;101812.63;5056295;28;20531;-86
2023/11/18 03:46:42;;;;;;;;;;;;;;;1.63;100.00;101808.34;5042028;28;19925;-87
2023/11/18 03:49:15;;;;;;;;;;;;;;;1.65;100.00;101803.63;5049661;28;19929;-87
2023/11/18 03:51:48;;;;;;;;;;;;;;;1.75;100.00;101804.13;5051750;28;19929;-87
2023/11/18 03:54:16;;;;;;;;;;;;;;;1.76;100.00;101808.47;5055964;28;19928;-87
2023/11/18 03:56:43;;;;;;;;;;;;;;;1.77;100.00;101803.94;5043190;28;19925;-88
2023/11/18 03:59:11;;;;;;;;;;;;;;;1.81;100.00;101806.06;5071330;28;19932;-87
2023/11/18 04:01:48;;;;;;;;;;;;;;;1.85;100.00;101804.63;5053034;28;19939;-88
2023/11/18 04:04:17;;;;;;;;;;;;;;;1.90;100.00;101803.22;5057890;28;19924;-89
2023/11/18 04:06:50;;;;;;;;;;;;;;;1.96;100.00;101811.34;5046253;28;19925;-89
2023/11/18 04:09:18;;;;;;;;;;;;;;;1.99;100.00;101812.78;5044693;28;19924;-89
2023/11/18 04:11:46;;;;;;;;;;;;;;;2.01;100.00;101819.63;5048557;28;19928;-90
2023/11/18 04:14:14;;;;;;;;;;;;;;;2.00;100.00;101822.50;5052762;28;19924;-87
2023/11/18 04:16:42;;;;;;;;;;;;;;;2.03;100.00;101828.31;5052566;28;19924;-87
2023/11/18 04:19:12;;;;;;;;;;;;;;;2.03;100.00;101824.78;5052199;28;19931;-87
2023/11/18 04:21:40;;;;;;;;;;;;;;;2.09;100.00;101820.53;5052161;28;19932;-87
2023/11/18 04:24:08;;;;;;;;;;;;;;;2.11;100.00;101830.00;5069821;28;19930;-88
2023/11/18 04:26:36;;;;;;;;;;;;;;;2.11;100.00;101827.34;5044589;28;19935;-88
2023/11/18 04:29:09;;;;;;;;;;;;;;;2.14;100.00;101826.97;5049656;28;19924;-88
2023/11/18 04:31:38;;;;;;;;;;;;;;;2.16;100.00;101826.75;5054440;28;19925;-88
2023/11/18 04:34:06;;;;;;;;;;;;;;;2.17;100.00;101828.44;5053323;28;19928;-88
2023/11/18 04:36:35;;;;;;;;;;;;;;;2.18;100.00;101830.06;5064911;28;19924;-87
2023/11/18 04:39:03;;;;;;;;;;;;;;;2.20;100.00;101823.47;5043508;28;19939;-88
2023/11/18 04:41:32;;;;;;;;;;;;;;;2.23;100.00;101824.94;5057679;28;19931;-89
2023/11/18 04:44:00;;;;;;;;;;;;;;;2.24;100.00;101813.19;5057651;28;19925;-88
2023/11/18 04:46:29;;;;;;;;;;;;;;;2.26;100.00;101818.38;5051538;28;19925;-88
2023/11/18 04:48:57;;;;;;;;;;;;;;;2.26;100.00;101813.81;5056234;28;19931;-87
2023/11/18 04:51:30;;;;;;;;;;;;;;;2.24;100.00;101813.19;5074924;28;19931;-87
2023/11/18 04:53:59;;;;;;;;;;;;;;;2.14;100.00;101816.22;5074085;28;19924;-88
2023/11/18 04:56:27;;;;;;;;;;;;;;;2.15;100.00;101815.16;5060277;28;19925;-87
2023/11/18 04:58:55;;;;;;;;;;;;;;;2.13;100.00;101811.88;5060786;28;19924;-88
2023/11/18 05:01:23;;;;;;;;;;;;;;;2.08;100.00;101800.06;5044397;28;19932;-87
2023/11/18 05:03:51;;;;;;;;;;;;;;;2.07;100.00;101817.19;5068189;28;19924;-88
2023/11/18 05:06:20;;;;;;;;;;;;;;;2.09;100.00;101823.22;5068897;28;20393;-88
2023/11/18 05:08:53;;;;;;;;;;;;;;;2.12;100.00;101817.44;5090874;28;19924;-88
2023/11/18 05:11:22;;;;;;;;;;;;;;;2.11;100.00;101821.13;5058066;28;20401;-89
2023/11/18 05:13:50;;;;;;;;;;;;;;;2.03;100.00;101817.59;5052125;28;20293;-88
2023/11/18 05:16:18;;;;;;;;;;;;;;;2.11;100.00;101810.41;5053736;28;19931;-88
2023/11/18 05:18:46;;;;;;;;;;;;;;;2.14;100.00;101815.38;5053392;28;19929;-87
2023/11/18 05:21:14;;;;;;;;;;;;;;;2.13;100.00;101809.19;5042952;28;19925;-88
2023/11/18 05:23:42;;;;;;;;;;;;;;;2.17;100.00;101821.19;5055558;28;19929;-88
2023/11/18 05:26:15;;;;;;;;;;;;;;;2.18;100.00;101806.75;5044130;28;19929;-88
2023/11/18 05:28:45;;;;;;;;;;;;;;;2.18;100.00;101816.63;5059999;28;19932;-88
2023/11/18 05:31:17;;;;;;;;;;;;;;;2.16;100.00;101802.59;5049397;28;19928;-87
2023/11/18 05:33:51;;;;;;;;;;;;;;;2.18;100.00;101805.91;5060431;28;19932;-88
2023/11/18 05:36:26;;;;;;;;;;;;;;;2.18;100.00;101801.38;5048222;28;19931;-88
2023/11/18 05:38:55;;;;;;;;;;;;;;;2.21;100.00;101795.59;5054625;28;19939;-88
2023/11/18 05:41:27;;;;;;;;;;;;;;;2.20;100.00;101785.06;5049571;28;19929;-88
2023/11/18 05:43:57;;;;;;;;;;;;;;;2.20;100.00;101785.88;5066851;28;19924;-88
2023/11/18 05:46:29;;;;;;;;;;;;;;;2.20;100.00;101787.75;5058040;28;19932;-88
2023/11/18 05:48:57;;;;;;;;;;;;;;;2.21;100.00;101782.19;5049741;28;19928;-88
2023/11/18 05:51:26;;;;;;;;;;;;;;;2.24;100.00;101777.41;5049427;28;19939;-88
2023/11/18 05:53:55;;;;;;;;;;;;;;;2.21;100.00;101782.19;5074458;28;19928;-88
2023/11/18 05:56:23;;;;;;;;;;;;;;;2.25;100.00;101785.31;5048477;28;20003;-88
2023/11/18 05:58:53;;;;;;;;;;;;;;;2.23;100.00;101781.16;5055090;28;19925;-88
2023/11/18 06:01:22;;;;;;;;;;;;;;;2.24;100.00;101785.47;5051829;28;19925;-88
2023/11/18 06:03:56;;;;;;;;;;;;;;;2.21;100.00;101786.72;5049379;28;20304;-89
2023/11/18 06:06:24;;;;;;;;;;;;;;;2.23;100.00;101773.91;5048116;28;19931;-88
2023/11/18 06:09:04;;;;;;;;;;;;;;;2.23;100.00;101778.47;5062557;28;19935;-88
2023/11/18 06:11:32;;;;;;;;;;;;;;;2.24;100.00;101769.38;5053849;28;20436;-88
2023/11/18 06:14:08;;;;;;;;;;;;;;;2.26;100.00;101778.88;5049665;28;19925;-88
2023/11/18 06:16:39;;;;;;;;;;;;;;;2.25;100.00;101769.19;5055249;28;19928;-88
2023/11/18 06:19:12;;;;;;;;;;;;;;;2.25;100.00;101769.19;5050259;28;20273;-88
2023/11/18 06:21:45;;;;;;;;;;;;;;;2.24;100.00;101766.69;5072714;28;19925;-88
2023/11/18 06:24:18;;;;;;;;;;;;;;;2.21;100.00;101765.25;5057004;28;19929;-87
2023/11/18 06:26:46;;;;;;;;;;;;;;;2.18;100.00;101769.16;5062367;28;19932;-87
2023/11/18 06:29:15;;;;;;;;;;;;;;;2.18;100.00;101771.84;5071228;28;19932;-89
2023/11/18 06:31:49;;;;;;;;;;;;;;;2.21;100.00;101782.19;5057168;28;19928;-89
2023/11/18 06:34:22;;;;;;;;;;;;;;;2.17;100.00;101774.72;5054452;28;19929;-88
2023/11/18 06:36:50;;;;;;;;;;;;;;;2.18;100.00;101774.53;5058376;28;19954;-88
2023/11/18 06:39:19;;;;;;;;;;;;;;;2.12;100.00;101774.47;5058511;28;19928;-88
2023/11/18 06:41:50;;;;;;;;;;;;;;;2.08;100.00;101778.56;5065467;28;20400;-88
2023/11/18 06:44:23;;;;;;;;;;;;;;;2.05;100.00;101785.16;5066199;28;19939;-88
2023/11/18 06:46:53;;;;;;;;;;;;;;;2.06;100.00;101783.28;5068317;28;19932;-87
2023/11/18 06:49:21;;;;;;;;;;;;;;;1.93;100.00;101784.03;5058354;28;19931;-88
2023/11/18 06:51:48;;;;;;;;;;;;;;;1.94;100.00;101786.53;5055543;28;19928;-88
2023/11/18 06:54:17;;;;;;;;;;;;;;;1.91;100.00;101788.78;5051222;28;20309;-88
2023/11/18 06:56:45;;;;;;;;;;;;;;;1.91;100.00;101786.91;5060442;28;19925;-88
2023/11/18 06:59:18;;;;;;;;;;;;;;;1.94;100.00;101781.16;5071232;28;19936;-88
2023/11/18 07:01:46;;;;;;;;;;;;;;;1.89;100.00;101782.78;5055834;28;19925;-87
2023/11/18 07:04:20;;;;;;;;;;;;;;;1.86;100.00;101787.50;5055012;28;19932;-88
2023/11/18 07:06:48;;;;;;;;;;;;;;;1.85;100.00;101793.91;5052612;28;19929;-88
2023/11/18 07:09:20;;;;;;;;;;;;;;;1.94;100.00;101788.38;5043696;28;19932;-88
2023/11/18 07:11:48;;;;;;;;;;;;;;;1.96;100.00;101794.38;5061788;28;20351;-88
2023/11/18 07:14:17;;;;;;;;;;;;;;;1.95;100.00;101790.06;5050985;28;19947;-88
2023/11/18 07:16:49;;;;;;;;;;;;;;;1.95;100.00;101787.38;5045533;28;19929;-88
2023/11/18 07:19:19;;;;;;;;;;;;;;;1.91;100.00;101797.66;5057007;28;20684;-88
2023/11/18 07:21:54;;;;;;;;;;;;;;;1.93;100.00;101798.28;5075552;28;19924;-88
2023/11/18 07:24:21;;;;;;;;;;;;;;;1.97;100.00;101810.28;5065103;28;19924;-87
2023/11/18 07:26:56;;;;;;;;;;;;;;;1.97;100.00;101810.28;5052111;28;19925;-88
2023/11/18 07:29:24;;;;;;;;;;;;;;;2.01;100.00;101816.13;5059285;28;19924;-88
2023/11/18 07:31:56;;;;;;;;;;;;;;;2.03;100.00;101825.63;5051362;28;19924;-88
2023/11/18 07:34:25;;;;;;;;;;;;;;;2.06;100.00;101829.78;5062210;28;19924;-88
2023/11/18 07:36:55;;;;;;;;;;;;;;;2.11;100.00;101838.06;5054361;28;19925;-88
2023/11/18 07:39:43;;;;;;;;;;;;;;;2.19;100.00;101839.78;5057020;28;19925;-88
2023/11/18 07:42:17;;;;;;;;;;;;;;;2.22;100.00;101844.78;5046451;28;20309;-87
2023/11/18 07:44:51;;;;;;;;;;;;;;;2.28;100.00;101844.00;5071519;28;19928;-88
2023/11/18 07:47:21;;;;;;;;;;;;;;;2.35;100.00;101842.19;5056245;28;19925;-88
2023/11/18 07:49:49;;;;;;;;;;;;;;;2.41;100.00;101850.50;5060409;28;19925;-88
2023/11/18 07:52:23;;;;;;;;;;;;;;;2.45;100.00;101841.00;5055702;28;20407;-88
2023/11/18 07:54:57;;;;;;;;;;;;;;;2.50;100.00;101838.53;5048595;28;20437;-88
2023/11/18 07:57:25;;;;;;;;;;;;;;;2.57;100.00;101844.81;5074637;28;19924;-88
2023/11/18 08:00:05;;;;;;;;;;;;;;;2.60;100.00;101835.53;5087559;28;19931;-88
2023/11/18 08:02:41;;;;;;;;;;;;;;;2.70;100.00;101836.00;5053980;28;19940;-87
2023/11/18 08:05:13;;;;;;;;;;;;;;;2.73;100.00;101832.88;5052006;28;19925;-88
2023/11/18 08:07:47;;;;;;;;;;;;;;;2.69;100.00;101835.16;5059078;28;19931;-88
2023/11/18 08:10:18;;;;;;;;;;;;;;;2.75;100.00;101838.06;5062657;28;19925;-88
2023/11/18 08:12:46;;;;;;;;;;;;;;;2.78;100.00;101840.38;5063583;28;20377;-88
2023/11/18 08:15:14;;;;;;;;;;;;;;;2.78;100.00;101841.19;5056578;28;19932;-88
2023/11/18 08:17:42;;;;;;;;;;;;;;;2.79;100.00;101836.63;5056453;28;20397;-87
2023/11/18 08:20:13;;;;;;;;;;;;;;;2.82;100.00;101834.41;5070409;28;19927;-88
2023/11/18 08:22:48;;;;;;;;;;;;;;;2.83;100.00;101825.31;5061600;28;20281;-88
2023/11/18 08:25:17;;;;;;;;;;;;;;;2.89;100.00;101835.25;5058367;28;20293;-89
2023/11/18 08:27:45;;;;;;;;;;;;;;;2.98;100.00;101833.22;5055152;28;19925;-89
2023/11/18 08:30:14;;;;;;;;;;;;;;;3.04;100.00;101840.50;5051631;28;19925;-88
2023/11/18 08:32:47;;;;;;;;;;;;;;;3.11;100.00;101831.59;5046032;28;20025;-89
2023/11/18 08:35:21;;;;;;;;;;;;;;;3.14;100.00;101837.41;5052850;28;19924;-88
2023/11/18 08:37:55;;;;;;;;;;;;;;;3.18;100.00;101845.94;5058637;28;20449;-88
2023/11/18 08:40:24;;;;;;;;;;;;;;;3.18;100.00;101848.63;5054208;28;19932;-89
2023/11/18 08:42:57;;;;;;;;;;;;;;;3.20;100.00;101857.28;5053147;28;19925;-88
2023/11/18 08:45:27;;;;;;;;;;;;;;;3.26;100.00;101844.91;5047266;28;19925;-91
2023/11/18 08:47:56;;;;;;;;;;;;;;;3.28;100.00;101843.66;5039358;28;19925;-89
2023/11/18 08:50:24;;;;;;;;;;;;;;;3.27;100.00;101841.19;5055849;28;19936;-91
2023/11/18 08:52:57;;;;;;;;;;;;;;;3.23;100.00;101833.53;5054923;28;19924;-90
2023/11/18 08:55:50;;;;;;;;;;;;;;;3.23;100.00;101824.59;5045211;28;19925;-90
2023/11/18 08:58:27;;;;;;;;;;;;;;;3.21;100.00;101829.38;5049527;28;19924;-88
2023/11/18 09:01:05;;;;;;;;;;;;;;;3.21;100.00;101827.50;5049452;28;20416;-89
2023/11/18 09:03:35;;;;;;;;;;;;;;;3.20;100.00;101827.72;5051234;28;19929;-87
2023/11/18 09:06:04;;;;;;;;;;;;;;;3.24;100.00;101818.19;5061152;28;19925;-87
2023/11/18 09:08:34;;;;;;;;;;;;;;;3.28;100.00;101827.53;5065245;28;19924;-87
2023/11/18 09:11:05;;;;;;;;;;;;;;;3.30;100.00;101821.94;5042292;28;19936;-87
2023/11/18 09:13:34;;;;;;;;;;;;;;;3.33;100.00;101826.91;5050718;28;19924;-86
2023/11/18 09:16:03;;;;;;;;;;;;;;;3.38;100.00;101822.59;5043510;28;19932;-87
2023/11/18 09:18:33;;;;;;;;;;;;;;;3.48;100.00;101821.34;5059859;28;19928;-86
2023/11/18 09:21:14;;;;;;;;;;;;;;;3.55;100.00;101831.13;5048943;28;20395;-86
2023/11/18 09:23:42;;;;;;;;;;;;;;;3.50;100.00;101820.13;5072029;28;20484;-87
2023/11/18 09:26:11;;;;;;;;;;;;;;;3.60;100.00;101817.03;5054677;28;20435;-87
2023/11/18 09:28:38;;;;;;;;;;;;;;;3.56;100.00;101818.47;5057556;28;19924;-85
2023/11/18 09:31:11;;;;;;;;;;;;;;;3.63;100.00;101822.00;5051622;28;19932;-87
2023/11/18 09:33:44;;;;;;;;;;;;;;;3.63;100.00;101818.50;5060538;28;19931;-86
2023/11/18 09:36:13;;;;;;;;;;;;;;;3.52;100.00;101812.69;5051389;28;19925;-85
2023/11/18 09:38:46;;;;;;;;;;;;;;;3.46;100.00;101812.66;5059698;28;19931;-85
2023/11/18 09:41:16;;;;;;;;;;;;;;;3.42;100.00;101822.19;5056060;28;19935;-88
2023/11/18 09:43:46;;;;;;;;;;;;;;;3.32;100.00;101815.31;5045119;28;19925;-88
2023/11/18 09:46:23;;;;;;;;;;;;;;;3.18;100.00;101819.03;5046753;28;19939;-88
2023/11/18 09:48:53;;;;;;;;;;;;;;;3.07;100.00;101817.75;5060816;28;19936;-88
2023/11/18 09:51:22;;;;;;;;;;;;;;;3.04;100.00;101818.16;5052642;28;19999;-88
2023/11/18 09:53:52;;;;;;;;;;;;;;;3.02;100.00;101818.31;5047649;28;20305;-87
2023/11/18 09:56:37;;;;;;;;;;;;;;;3.04;100.00;101818.16;5043339;28;19933;-87
2023/11/18 09:59:15;;;;;;;;;;;;;;;3.05;100.00;101812.56;5064542;28;19924;-85
2023/11/18 10:01:44;;;;;;;;;;;;;;;3.09;100.00;101807.59;5049591;28;19925;-87
2023/11/18 10:04:13;;;;;;;;;;;;;;;3.11;100.00;101802.00;5049783;28;19943;-87
2023/11/18 10:06:44;;;;;;;;;;;;;;;3.13;100.00;101805.34;5049480;28;19932;-86
2023/11/18 10:09:19;;;;;;;;;;;;;;;3.18;100.00;101797.50;5072969;28;19954;-87
2023/11/18 10:11:58;;;;;;;;;;;;;;;3.19;100.00;101794.59;5042414;28;19928;-87
2023/11/18 10:14:26;;;;;;;;;;;;;;;3.23;100.00;101789.63;5051740;28;19931;-86
2023/11/18 10:16:54;;;;;;;;;;;;;;;3.26;100.00;101783.03;5060641;28;19925;-87
2023/11/18 10:19:25;;;;;;;;;;;;;;;3.35;100.00;101795.25;5048874;28;19936;-84
2023/11/18 10:21:56;;;;;;;;;;;;;;;3.44;100.00;101783.28;5042471;28;20292;-87
2023/11/18 10:24:45;;;;;;;;;;;;;;;3.47;100.00;101785.56;5051152;28;19931;-86
2023/11/18 10:27:15;;;;;;;;;;;;;;;3.45;100.00;101784.91;5041173;28;19924;-85
2023/11/18 10:29:49;;;;;;;;;;;;;;;3.46;100.00;101789.28;5056765;28;19928;-85
2023/11/18 10:32:22;;;;;;;;;;;;;;;3.47;100.00;101788.25;5058182;28;19928;-85
2023/11/18 10:34:56;;;;;;;;;;;;;;;3.53;100.00;101783.91;5046700;28;19935;-85
2023/11/18 10:37:30;;;;;;;;;;;;;;;3.60;100.00;101778.53;5063357;28;19925;-86
2023/11/18 10:40:05;;;;;;;;;;;;;;;3.64;100.00;101772.50;5037196;28;19925;-85
2023/11/18 10:42:34;;;;;;;;;;;;;;;3.66;100.00;101765.06;5052115;28;19925;-85
2023/11/18 10:45:03;;;;;;;;;;;;;;;3.65;100.00;101771.50;5050682;28;19929;-86
2023/11/18 10:47:34;;;;;;;;;;;;;;;3.66;100.00;101772.31;5047403;28;19931;-86
2023/11/18 10:50:02;;;;;;;;;;;;;;;3.71;100.00;101754.50;5049919;28;20403;-86
2023/11/18 10:52:34;;;;;;;;;;;;;;;3.71;100.00;101759.88;5061664;28;19924;-86
2023/11/18 10:55:11;;;;;;;;;;;;;;;3.73;100.00;101757.00;5055098;28;19928;-85
2023/11/18 10:57:45;;;;;;;;;;;;;;;3.79;100.00;101752.66;5047508;28;19925;-85
2023/11/18 11:00:19;;;;;;;;;;;;;;;3.77;100.00;101752.84;5064564;28;19925;-86
2023/11/18 11:02:49;;;;;;;;;;;;;;;3.81;100.00;101755.94;5052324;28;19924;-86
2023/11/18 11:05:32;;;;;;;;;;;;;;;3.80;100.00;101765.91;5051888;28;19925;-86
2023/11/18 11:08:00;;;;;;;;;;;;;;;3.75;100.00;101757.59;5050618;28;19931;-86
2023/11/18 11:10:35;;;;;;;;;;;;;;;3.78;100.00;101741.03;5053381;28;19924;-86
2023/11/18 11:13:11;;;;;;;;;;;;;;;3.78;100.00;101724.88;5053241;28;19931;-86
2023/11/18 11:15:45;;;;;;;;;;;;;;;3.72;100.00;101715.78;5052429;28;19931;-85
2023/11/18 11:18:22;;;;;;;;;;;;;;;3.71;100.00;101707.91;5057811;28;20288;-86
2023/11/18 11:21:03;;;;;;;;;;;;;;;3.73;100.00;101709.34;5065852;28;19946;-86
2023/11/18 11:23:43;;;;;;;;;;;;;;;3.76;100.00;101721.56;5066818;28;19928;-85
2023/11/18 11:26:20;;;;;;;;;;;;;;;3.76;100.00;101705.41;5076358;28;20148;-86
2023/11/18 11:28:53;;;;;;;;;;;;;;;3.80;100.00;101705.81;5053099;28;19925;-86
2023/11/18 11:31:22;;;;;;;;;;;;;;;3.77;100.00;101701.69;5048310;28;19935;-87
2023/11/18 11:33:58;;;;;;;;;;;;;;;3.82;100.00;101699.19;5047785;28;19932;-86
2023/11/18 11:36:39;;;;;;;;;;;;;;;3.83;100.00;101702.72;5059840;28;19924;-87
2023/11/18 11:39:14;;;;;;;;;;;;;;;3.92;100.00;101706.84;5059880;28;19925;-86
2023/11/18 11:41:51;;;;;;;;;;;;;;;3.94;100.00;101699.38;5044620;28;19924;-86
2023/11/18 11:44:21;;;;;;;;;;;;;;;3.94;100.00;101685.91;5067492;28;19924;-87
2023/11/18 11:46:55;;;;;;;;;;;;;;;3.97;100.00;101679.28;5054856;28;20400;-86
2023/11/18 11:49:31;;;;;;;;;;;;;;;3.97;100.00;101673.91;5059946;28;19931;-88
2023/11/18 11:52:04;;;;;;;;;;;;;;;4.00;100.00;101665.38;5064557;28;19925;-85
2023/11/18 11:54:41;;;;;;;;;;;;;;;4.05;100.00;101674.50;5054104;28;19924;-87
2023/11/18 11:57:14;;;;;;;;;;;;;;;4.01;100.00;101670.56;5048402;28;20004;-87
2023/11/18 12:00:14;;;;;;;;;;;;;;;3.96;100.00;101680.31;5062871;28;20297;-86
2023/11/18 12:02:51;;;;;;;;;;;;;;;3.99;100.00;101671.81;5048808;28;19925;-87
2023/11/18 12:05:24;;;;;;;;;;;;;;;3.99;100.00;101663.72;5066826;28;20377;-84
2023/11/18 12:07:54;;;;;;;;;;;;;;;3.99;100.00;101644.88;5067699;28;19932;-84
2023/11/18 12:10:28;;;;;;;;;;;;;;;3.96;100.00;101659.59;5046472;28;19932;-84
2023/11/18 12:13:08;;;;;;;;;;;;;;;3.99;100.00;101651.09;5045568;28;19933;-84
2023/11/18 12:15:58;;;;;;;;;;;;;;;4.02;100.00;101657.91;5062691;28;19952;-83
2023/11/18 12:18:33;;;;;;;;;;;;;;;4.00;100.00;101655.44;5053079;28;20391;-87
2023/11/18 12:21:11;;;;;;;;;;;;;;;3.99;100.00;101658.34;5054053;28;20274;-85
2023/11/18 12:24:02;;;;;;;;;;;;;;;4.01;100.00;101650.91;5056302;28;19928;-84
2023/11/18 12:26:39;;;;;;;;;;;;;;;4.03;100.00;101643.41;5057443;28;19936;-82
2023/11/18 12:29:22;;;;;;;;;;;;;;;4.06;100.00;101637.59;5054852;28;20014;-84
2023/11/18 12:31:57;;;;;;;;;;;;;;;4.10;100.00;101630.75;5048478;28;19935;-83
2023/11/18 12:34:46;;;;;;;;;;;;;;;4.08;100.00;101625.56;5051485;28;19936;-83
2023/11/18 12:37:42;;;;;;;;;;;;;;;4.09;100.00;101635.31;5060606;28;19940;-84
2023/11/18 12:40:50;;;;;;;;;;;;;;;4.08;100.00;101636.34;5062044;28;19925;-88
2023/11/18 12:43:30;;;;;;;;;;;;;;;4.04;100.00;101637.81;5042281;28;20396;-83
2023/11/18 12:46:19;;;;;;;;;;;;;;;4.10;100.00;101638.81;5045669;28;19932;-81
2023/11/18 12:48:51;;;;;;;;;;;;;;;4.02;100.00;101631.81;5052539;28;19947;-84
2023/11/18 12:51:26;;;;;;;;;;;;;;;4.01;100.00;101640.94;5056508;28;19925;-83
2023/11/18 12:53:59;;;;;;;;;;;;;;;4.00;100.00;101641.16;5039454;28;19925;-84
2023/11/18 12:56:32;;;;;;;;;;;;;;;3.99;100.00;101629.56;5065430;28;19924;-83
2023/11/18 12:59:06;;;;;;;;;;;;;;;4.01;100.00;101622.09;5063063;28;19925;-84